sensor_id;sensor_type;location;lat;lon;timestamp;P1;durP1;ratioP1;P2;durP2;ratioP2
41229;SDS011;26964;50.428;19.218;2023-09-30T00:00:33;26.1;;;18.1;;
41229;SDS011;26964;50.428;19.218;2023-09-30T00:01:33;22.7;;;17.3;;
41229;SDS011;26964;50.428;19.218;2023-09-30T00:02:33;25.2;;;18.0;;
41229;SDS011;26964;50.428;19.218;2023-09-30T00:03:33;26.4;;;17.4;;
41229;SDS011;26964;50.428;19.218;2023-09-30T00:04:33;25.3;;;17.4;;
41229;SDS011;26964;50.428;19.218;2023-09-30T00:05:33;24.4;;;17.7;;
41229;SDS011;26964;50.428;19.218;2023-09-30T00:06:33;24.2;;;16.9;;
41229;SDS011;26964;50.428;19.218;2023-09-30T00:07:33;28.2;;;18.2;;
41229;SDS011;26964;50.428;19.218;2023-09-30T00:08:33;25.1;;;17.4;;
41229;SDS011;26964;50.428;19.218;2023-09-30T00:09:33;26.4;;;17.2;;
41229;SDS011;26964;50.428;19.218;2023-09-30T00:10:33;21.9;;;16.2;;
41229;SDS011;26964;50.428;19.218;2023-09-30T00:11:33;22.8;;;16.6;;
41229;SDS011;26964;50.428;19.218;2023-09-30T00:12:33;22.5;;;17.0;;
41229;SDS011;26964;50.428;19.218;2023-09-30T00:13:33;20.7;;;16.1;;
41229;SDS011;26964;50.428;19.218;2023-09-30T00:14:33;26.1;;;17.3;;
41229;SDS011;26964;50.428;19.218;2023-09-30T00:15:34;27.5;;;17.1;;
41229;SDS011;26964;50.428;19.218;2023-09-30T00:16:33;25.6;;;17.2;;
41229;SDS011;26964;50.428;19.218;2023-09-30T00:17:33;26.4;;;17.0;;
41229;SDS011;26964;50.428;19.218;2023-09-30T00:18:33;27.9;;;16.9;;
41229;SDS011;26964;50.428;19.218;2023-09-30T00:19:33;22.6;;;16.9;;
41229;SDS011;26964;50.428;19.218;2023-09-30T00:20:33;27.3;;;17.3;;
41229;SDS011;26964;50.428;19.218;2023-09-30T00:21:33;24.6;;;17.1;;
41229;SDS011;26964;50.428;19.218;2023-09-30T00:22:33;24.4;;;17.0;;
41229;SDS011;26964;50.428;19.218;2023-09-30T00:23:33;26.7;;;17.8;;
41229;SDS011;26964;50.428;19.218;2023-09-30T00:24:33;23.8;;;16.7;;
41229;SDS011;26964;50.428;19.218;2023-09-30T00:25:33;24.2;;;16.3;;
41229;SDS011;26964;50.428;19.218;2023-09-30T00:26:33;24.4;;;17.4;;
41229;SDS011;26964;50.428;19.218;2023-09-30T00:27:33;24.8;;;17.0;;
41229;SDS011;26964;50.428;19.218;2023-09-30T00:28:33;24.1;;;17.7;;
41229;SDS011;26964;50.428;19.218;2023-09-30T00:29:33;24.9;;;16.5;;
41229;SDS011;26964;50.428;19.218;2023-09-30T00:30:33;22.9;;;16.9;;
41229;SDS011;26964;50.428;19.218;2023-09-30T00:31:33;21.3;;;15.3;;
41229;SDS011;26964;50.428;19.218;2023-09-30T00:32:33;25.3;;;17.6;;
41229;SDS011;26964;50.428;19.218;2023-09-30T00:33:33;21.4;;;15.2;;
41229;SDS011;26964;50.428;19.218;2023-09-30T00:34:33;21.8;;;16.2;;
41229;SDS011;26964;50.428;19.218;2023-09-30T00:35:33;24.8;;;17.0;;
41229;SDS011;26964;50.428;19.218;2023-09-30T00:36:33;23.7;;;15.7;;
41229;SDS011;26964;50.428;19.218;2023-09-30T00:37:33;22.4;;;16.4;;
41229;SDS011;26964;50.428;19.218;2023-09-30T00:38:33;22.5;;;14.3;;
41229;SDS011;26964;50.428;19.218;2023-09-30T00:39:33;23.1;;;16.0;;
41229;SDS011;26964;50.428;19.218;2023-09-30T00:40:33;19.6;;;14.7;;
41229;SDS011;26964;50.428;19.218;2023-09-30T00:41:33;22.1;;;16.0;;
41229;SDS011;26964;50.428;19.218;2023-09-30T00:42:33;23.7;;;15.8;;
41229;SDS011;26964;50.428;19.218;2023-09-30T00:43:33;21.1;;;15.7;;
41229;SDS011;26964;50.428;19.218;2023-09-30T00:44:33;19.5;;;15.7;;
41229;SDS011;26964;50.428;19.218;2023-09-30T00:45:33;21.7;;;15.7;;
41229;SDS011;26964;50.428;19.218;2023-09-30T00:46:35;21.6;;;15.7;;
41229;SDS011;26964;50.428;19.218;2023-09-30T00:47:33;25.4;;;14.7;;
41229;SDS011;26964;50.428;19.218;2023-09-30T00:48:33;23.9;;;15.8;;
41229;SDS011;26964;50.428;19.218;2023-09-30T00:49:33;19.7;;;14.7;;
41229;SDS011;26964;50.428;19.218;2023-09-30T00:50:33;26.0;;;16.5;;
41229;SDS011;26964;50.428;19.218;2023-09-30T00:51:33;19.2;;;15.0;;
41229;SDS011;26964;50.428;19.218;2023-09-30T00:52:34;23.4;;;15.5;;
41229;SDS011;26964;50.428;19.218;2023-09-30T00:53:33;20.8;;;16.4;;
41229;SDS011;26964;50.428;19.218;2023-09-30T00:54:33;20.2;;;14.4;;
41229;SDS011;26964;50.428;19.218;2023-09-30T00:55:33;21.4;;;15.9;;
41229;SDS011;26964;50.428;19.218;2023-09-30T00:56:33;26.1;;;15.9;;
41229;SDS011;26964;50.428;19.218;2023-09-30T00:57:33;22.9;;;15.3;;
41229;SDS011;26964;50.428;19.218;2023-09-30T00:58:33;20.2;;;15.2;;
41229;SDS011;26964;50.428;19.218;2023-09-30T00:59:33;22.9;;;15.2;;
41229;SDS011;26964;50.428;19.218;2023-09-30T01:00:33;23.0;;;15.2;;
41229;SDS011;26964;50.428;19.218;2023-09-30T01:01:33;19.1;;;15.3;;
41229;SDS011;26964;50.428;19.218;2023-09-30T01:02:33;23.0;;;15.1;;
41229;SDS011;26964;50.428;19.218;2023-09-30T01:03:33;26.1;;;15.1;;
41229;SDS011;26964;50.428;19.218;2023-09-30T01:04:33;21.7;;;14.8;;
41229;SDS011;26964;50.428;19.218;2023-09-30T01:05:33;22.7;;;15.3;;
41229;SDS011;26964;50.428;19.218;2023-09-30T01:06:33;23.2;;;15.1;;
41229;SDS011;26964;50.428;19.218;2023-09-30T01:07:33;19.6;;;14.8;;
41229;SDS011;26964;50.428;19.218;2023-09-30T01:08:33;22.5;;;15.3;;
41229;SDS011;26964;50.428;19.218;2023-09-30T01:09:33;27.2;;;15.6;;
41229;SDS011;26964;50.428;19.218;2023-09-30T01:10:54;21.9;;;15.1;;
41229;SDS011;26964;50.428;19.218;2023-09-30T01:11:33;28.0;;;15.9;;
41229;SDS011;26964;50.428;19.218;2023-09-30T01:12:35;21.8;;;15.0;;
41229;SDS011;26964;50.428;19.218;2023-09-30T01:13:33;21.0;;;14.5;;
41229;SDS011;26964;50.428;19.218;2023-09-30T01:14:47;22.2;;;14.7;;
41229;SDS011;26964;50.428;19.218;2023-09-30T01:15:33;22.4;;;14.9;;
41229;SDS011;26964;50.428;19.218;2023-09-30T01:16:33;23.0;;;14.5;;
41229;SDS011;26964;50.428;19.218;2023-09-30T01:17:33;20.5;;;14.7;;
41229;SDS011;26964;50.428;19.218;2023-09-30T01:18:33;20.3;;;15.0;;
41229;SDS011;26964;50.428;19.218;2023-09-30T01:19:33;22.2;;;15.4;;
41229;SDS011;26964;50.428;19.218;2023-09-30T01:20:33;19.3;;;14.9;;
41229;SDS011;26964;50.428;19.218;2023-09-30T01:21:33;20.4;;;15.5;;
41229;SDS011;26964;50.428;19.218;2023-09-30T01:22:33;22.2;;;14.2;;
41229;SDS011;26964;50.428;19.218;2023-09-30T01:23:33;19.4;;;14.1;;
41229;SDS011;26964;50.428;19.218;2023-09-30T01:25:34;19.4;;;14.7;;
41229;SDS011;26964;50.428;19.218;2023-09-30T01:26:33;20.5;;;15.7;;
41229;SDS011;26964;50.428;19.218;2023-09-30T01:27:33;20.0;;;14.2;;
41229;SDS011;26964;50.428;19.218;2023-09-30T01:28:33;21.9;;;14.3;;
41229;SDS011;26964;50.428;19.218;2023-09-30T01:29:33;18.8;;;13.0;;
41229;SDS011;26964;50.428;19.218;2023-09-30T01:30:33;21.4;;;14.5;;
41229;SDS011;26964;50.428;19.218;2023-09-30T01:31:33;19.1;;;14.5;;
41229;SDS011;26964;50.428;19.218;2023-09-30T01:32:33;20.1;;;15.2;;
41229;SDS011;26964;50.428;19.218;2023-09-30T01:33:33;19.1;;;13.9;;
41229;SDS011;26964;50.428;19.218;2023-09-30T01:34:33;17.8;;;14.2;;
41229;SDS011;26964;50.428;19.218;2023-09-30T01:35:33;19.2;;;13.9;;
41229;SDS011;26964;50.428;19.218;2023-09-30T01:36:33;18.3;;;14.2;;
41229;SDS011;26964;50.428;19.218;2023-09-30T01:37:33;17.8;;;14.0;;
41229;SDS011;26964;50.428;19.218;2023-09-30T01:38:33;20.0;;;14.6;;
41229;SDS011;26964;50.428;19.218;2023-09-30T01:39:33;20.0;;;14.2;;
41229;SDS011;26964;50.428;19.218;2023-09-30T01:40:33;25.8;;;14.2;;
41229;SDS011;26964;50.428;19.218;2023-09-30T01:41:33;22.8;;;14.7;;
41229;SDS011;26964;50.428;19.218;2023-09-30T01:42:33;21.5;;;13.9;;
41229;SDS011;26964;50.428;19.218;2023-09-30T01:43:33;19.1;;;14.5;;
41229;SDS011;26964;50.428;19.218;2023-09-30T01:44:33;18.1;;;13.9;;
41229;SDS011;26964;50.428;19.218;2023-09-30T01:45:33;22.4;;;14.6;;
41229;SDS011;26964;50.428;19.218;2023-09-30T01:46:33;19.6;;;14.0;;
41229;SDS011;26964;50.428;19.218;2023-09-30T01:47:33;19.8;;;14.2;;
41229;SDS011;26964;50.428;19.218;2023-09-30T01:48:33;20.1;;;15.1;;
41229;SDS011;26964;50.428;19.218;2023-09-30T01:49:33;19.8;;;13.9;;
41229;SDS011;26964;50.428;19.218;2023-09-30T01:50:33;22.6;;;14.5;;
41229;SDS011;26964;50.428;19.218;2023-09-30T01:51:33;20.5;;;14.0;;
41229;SDS011;26964;50.428;19.218;2023-09-30T01:52:33;21.1;;;14.5;;
41229;SDS011;26964;50.428;19.218;2023-09-30T01:53:33;22.4;;;14.3;;
41229;SDS011;26964;50.428;19.218;2023-09-30T01:54:33;20.7;;;13.9;;
41229;SDS011;26964;50.428;19.218;2023-09-30T01:55:33;18.9;;;12.8;;
41229;SDS011;26964;50.428;19.218;2023-09-30T01:56:33;20.0;;;12.7;;
41229;SDS011;26964;50.428;19.218;2023-09-30T01:57:33;19.4;;;13.3;;
41229;SDS011;26964;50.428;19.218;2023-09-30T01:58:33;21.1;;;14.1;;
41229;SDS011;26964;50.428;19.218;2023-09-30T01:59:33;18.7;;;13.5;;
41229;SDS011;26964;50.428;19.218;2023-09-30T02:00:33;18.4;;;13.1;;
41229;SDS011;26964;50.428;19.218;2023-09-30T02:01:33;23.0;;;13.7;;
41229;SDS011;26964;50.428;19.218;2023-09-30T02:02:33;22.5;;;14.1;;
41229;SDS011;26964;50.428;19.218;2023-09-30T02:03:33;19.2;;;14.2;;
41229;SDS011;26964;50.428;19.218;2023-09-30T02:04:33;18.8;;;13.7;;
41229;SDS011;26964;50.428;19.218;2023-09-30T02:05:33;20.6;;;12.7;;
41229;SDS011;26964;50.428;19.218;2023-09-30T02:06:33;18.3;;;13.3;;
41229;SDS011;26964;50.428;19.218;2023-09-30T02:07:33;18.6;;;13.4;;
41229;SDS011;26964;50.428;19.218;2023-09-30T02:08:33;23.5;;;14.2;;
41229;SDS011;26964;50.428;19.218;2023-09-30T02:09:33;21.4;;;13.1;;
41229;SDS011;26964;50.428;19.218;2023-09-30T02:10:33;21.1;;;14.6;;
41229;SDS011;26964;50.428;19.218;2023-09-30T02:11:33;19.6;;;13.1;;
41229;SDS011;26964;50.428;19.218;2023-09-30T02:12:33;21.6;;;13.7;;
41229;SDS011;26964;50.428;19.218;2023-09-30T02:13:33;19.2;;;14.4;;
41229;SDS011;26964;50.428;19.218;2023-09-30T02:14:33;17.4;;;13.3;;
41229;SDS011;26964;50.428;19.218;2023-09-30T02:15:33;21.7;;;14.1;;
41229;SDS011;26964;50.428;19.218;2023-09-30T02:16:33;17.9;;;12.6;;
41229;SDS011;26964;50.428;19.218;2023-09-30T02:17:33;19.8;;;13.6;;
41229;SDS011;26964;50.428;19.218;2023-09-30T02:18:33;17.7;;;12.5;;
41229;SDS011;26964;50.428;19.218;2023-09-30T02:19:33;18.9;;;12.7;;
41229;SDS011;26964;50.428;19.218;2023-09-30T02:20:33;20.7;;;14.1;;
41229;SDS011;26964;50.428;19.218;2023-09-30T02:21:33;18.0;;;12.2;;
41229;SDS011;26964;50.428;19.218;2023-09-30T02:22:33;16.6;;;13.4;;
41229;SDS011;26964;50.428;19.218;2023-09-30T02:23:33;19.6;;;13.2;;
41229;SDS011;26964;50.428;19.218;2023-09-30T02:24:33;22.5;;;12.9;;
41229;SDS011;26964;50.428;19.218;2023-09-30T02:25:33;17.8;;;13.2;;
41229;SDS011;26964;50.428;19.218;2023-09-30T02:26:33;18.3;;;13.5;;
41229;SDS011;26964;50.428;19.218;2023-09-30T02:27:33;19.0;;;13.4;;
41229;SDS011;26964;50.428;19.218;2023-09-30T02:28:33;21.4;;;13.5;;
41229;SDS011;26964;50.428;19.218;2023-09-30T02:29:33;17.3;;;13.4;;
41229;SDS011;26964;50.428;19.218;2023-09-30T02:30:33;16.5;;;12.6;;
41229;SDS011;26964;50.428;19.218;2023-09-30T02:31:33;18.7;;;13.3;;
41229;SDS011;26964;50.428;19.218;2023-09-30T02:32:33;18.2;;;12.3;;
41229;SDS011;26964;50.428;19.218;2023-09-30T02:33:33;17.1;;;13.0;;
41229;SDS011;26964;50.428;19.218;2023-09-30T02:34:33;20.3;;;13.2;;
41229;SDS011;26964;50.428;19.218;2023-09-30T02:35:33;19.9;;;13.8;;
41229;SDS011;26964;50.428;19.218;2023-09-30T02:36:33;19.5;;;13.1;;
41229;SDS011;26964;50.428;19.218;2023-09-30T02:37:33;17.7;;;12.7;;
41229;SDS011;26964;50.428;19.218;2023-09-30T02:38:33;17.6;;;13.5;;
41229;SDS011;26964;50.428;19.218;2023-09-30T02:39:33;18.8;;;13.7;;
41229;SDS011;26964;50.428;19.218;2023-09-30T02:40:33;20.3;;;14.0;;
41229;SDS011;26964;50.428;19.218;2023-09-30T02:41:33;17.8;;;12.6;;
41229;SDS011;26964;50.428;19.218;2023-09-30T02:42:33;19.9;;;13.2;;
41229;SDS011;26964;50.428;19.218;2023-09-30T02:43:33;21.8;;;13.9;;
41229;SDS011;26964;50.428;19.218;2023-09-30T02:44:33;20.0;;;13.7;;
41229;SDS011;26964;50.428;19.218;2023-09-30T02:45:33;18.5;;;12.8;;
41229;SDS011;26964;50.428;19.218;2023-09-30T02:46:33;18.4;;;13.0;;
41229;SDS011;26964;50.428;19.218;2023-09-30T02:47:33;16.6;;;12.7;;
41229;SDS011;26964;50.428;19.218;2023-09-30T02:48:33;19.9;;;13.9;;
41229;SDS011;26964;50.428;19.218;2023-09-30T02:49:33;20.5;;;13.2;;
41229;SDS011;26964;50.428;19.218;2023-09-30T02:50:33;19.5;;;13.0;;
41229;SDS011;26964;50.428;19.218;2023-09-30T02:51:33;20.6;;;13.7;;
41229;SDS011;26964;50.428;19.218;2023-09-30T02:52:33;21.7;;;13.9;;
41229;SDS011;26964;50.428;19.218;2023-09-30T02:53:33;20.9;;;13.1;;
41229;SDS011;26964;50.428;19.218;2023-09-30T02:54:33;19.3;;;13.5;;
41229;SDS011;26964;50.428;19.218;2023-09-30T02:55:33;19.0;;;13.3;;
41229;SDS011;26964;50.428;19.218;2023-09-30T02:56:33;20.3;;;12.6;;
41229;SDS011;26964;50.428;19.218;2023-09-30T02:57:33;19.8;;;13.9;;
41229;SDS011;26964;50.428;19.218;2023-09-30T02:58:33;22.3;;;13.3;;
41229;SDS011;26964;50.428;19.218;2023-09-30T02:59:33;21.2;;;14.4;;
41229;SDS011;26964;50.428;19.218;2023-09-30T03:00:33;19.3;;;14.0;;
41229;SDS011;26964;50.428;19.218;2023-09-30T03:01:33;20.4;;;13.7;;
41229;SDS011;26964;50.428;19.218;2023-09-30T03:02:33;18.1;;;13.7;;
41229;SDS011;26964;50.428;19.218;2023-09-30T03:03:33;18.1;;;13.0;;
41229;SDS011;26964;50.428;19.218;2023-09-30T03:04:33;18.5;;;12.5;;
41229;SDS011;26964;50.428;19.218;2023-09-30T03:05:33;24.7;;;14.4;;
41229;SDS011;26964;50.428;19.218;2023-09-30T03:06:33;21.3;;;13.7;;
41229;SDS011;26964;50.428;19.218;2023-09-30T03:07:33;18.0;;;13.3;;
41229;SDS011;26964;50.428;19.218;2023-09-30T03:08:33;21.3;;;13.6;;
41229;SDS011;26964;50.428;19.218;2023-09-30T03:09:33;17.3;;;13.5;;
41229;SDS011;26964;50.428;19.218;2023-09-30T03:10:33;18.8;;;13.5;;
41229;SDS011;26964;50.428;19.218;2023-09-30T03:11:33;18.7;;;14.0;;
41229;SDS011;26964;50.428;19.218;2023-09-30T03:12:33;18.8;;;13.3;;
41229;SDS011;26964;50.428;19.218;2023-09-30T03:13:33;19.5;;;13.3;;
41229;SDS011;26964;50.428;19.218;2023-09-30T03:14:33;20.4;;;14.3;;
41229;SDS011;26964;50.428;19.218;2023-09-30T03:15:33;18.2;;;13.9;;
41229;SDS011;26964;50.428;19.218;2023-09-30T03:16:33;16.9;;;12.9;;
41229;SDS011;26964;50.428;19.218;2023-09-30T03:17:33;18.8;;;13.4;;
41229;SDS011;26964;50.428;19.218;2023-09-30T03:18:33;19.4;;;14.0;;
41229;SDS011;26964;50.428;19.218;2023-09-30T03:19:33;18.8;;;13.7;;
41229;SDS011;26964;50.428;19.218;2023-09-30T03:20:33;19.0;;;14.1;;
41229;SDS011;26964;50.428;19.218;2023-09-30T03:21:34;21.1;;;14.7;;
41229;SDS011;26964;50.428;19.218;2023-09-30T03:22:33;20.6;;;13.4;;
41229;SDS011;26964;50.428;19.218;2023-09-30T03:23:33;22.1;;;14.6;;
41229;SDS011;26964;50.428;19.218;2023-09-30T03:24:33;23.4;;;14.4;;
41229;SDS011;26964;50.428;19.218;2023-09-30T03:25:33;20.1;;;13.9;;
41229;SDS011;26964;50.428;19.218;2023-09-30T03:26:33;18.0;;;13.7;;
41229;SDS011;26964;50.428;19.218;2023-09-30T03:27:33;19.8;;;13.9;;
41229;SDS011;26964;50.428;19.218;2023-09-30T03:28:33;20.4;;;14.0;;
41229;SDS011;26964;50.428;19.218;2023-09-30T03:29:35;19.2;;;13.7;;
41229;SDS011;26964;50.428;19.218;2023-09-30T03:30:33;21.3;;;14.0;;
41229;SDS011;26964;50.428;19.218;2023-09-30T03:31:33;18.4;;;14.1;;
41229;SDS011;26964;50.428;19.218;2023-09-30T03:32:33;16.8;;;12.5;;
41229;SDS011;26964;50.428;19.218;2023-09-30T03:33:33;17.7;;;14.3;;
41229;SDS011;26964;50.428;19.218;2023-09-30T03:34:33;18.8;;;13.9;;
41229;SDS011;26964;50.428;19.218;2023-09-30T03:35:33;20.5;;;14.0;;
41229;SDS011;26964;50.428;19.218;2023-09-30T03:36:33;18.9;;;14.6;;
41229;SDS011;26964;50.428;19.218;2023-09-30T03:37:33;21.5;;;13.8;;
41229;SDS011;26964;50.428;19.218;2023-09-30T03:38:33;18.8;;;13.3;;
41229;SDS011;26964;50.428;19.218;2023-09-30T03:39:33;18.4;;;13.6;;
41229;SDS011;26964;50.428;19.218;2023-09-30T03:40:33;18.4;;;13.9;;
41229;SDS011;26964;50.428;19.218;2023-09-30T03:41:33;19.9;;;14.9;;
41229;SDS011;26964;50.428;19.218;2023-09-30T03:42:33;18.9;;;13.9;;
41229;SDS011;26964;50.428;19.218;2023-09-30T03:43:33;19.2;;;13.6;;
41229;SDS011;26964;50.428;19.218;2023-09-30T03:44:33;19.9;;;14.1;;
41229;SDS011;26964;50.428;19.218;2023-09-30T03:45:33;22.3;;;14.5;;
41229;SDS011;26964;50.428;19.218;2023-09-30T03:46:33;20.8;;;13.2;;
41229;SDS011;26964;50.428;19.218;2023-09-30T03:47:34;18.8;;;14.1;;
41229;SDS011;26964;50.428;19.218;2023-09-30T03:48:33;18.9;;;14.1;;
41229;SDS011;26964;50.428;19.218;2023-09-30T03:49:33;20.1;;;14.2;;
41229;SDS011;26964;50.428;19.218;2023-09-30T03:50:33;18.1;;;13.8;;
41229;SDS011;26964;50.428;19.218;2023-09-30T03:51:33;21.7;;;14.2;;
41229;SDS011;26964;50.428;19.218;2023-09-30T03:52:33;20.3;;;14.9;;
41229;SDS011;26964;50.428;19.218;2023-09-30T03:53:33;17.9;;;14.0;;
41229;SDS011;26964;50.428;19.218;2023-09-30T03:54:33;18.2;;;14.1;;
41229;SDS011;26964;50.428;19.218;2023-09-30T03:55:33;21.0;;;15.0;;
41229;SDS011;26964;50.428;19.218;2023-09-30T03:56:33;18.0;;;13.8;;
41229;SDS011;26964;50.428;19.218;2023-09-30T03:57:33;21.9;;;14.0;;
41229;SDS011;26964;50.428;19.218;2023-09-30T03:58:33;19.0;;;14.2;;
41229;SDS011;26964;50.428;19.218;2023-09-30T03:59:33;21.0;;;14.9;;
41229;SDS011;26964;50.428;19.218;2023-09-30T04:00:33;17.6;;;13.2;;
41229;SDS011;26964;50.428;19.218;2023-09-30T04:01:33;22.1;;;13.8;;
41229;SDS011;26964;50.428;19.218;2023-09-30T04:02:33;19.8;;;14.6;;
41229;SDS011;26964;50.428;19.218;2023-09-30T04:03:33;18.4;;;13.5;;
41229;SDS011;26964;50.428;19.218;2023-09-30T04:04:33;21.0;;;14.3;;
41229;SDS011;26964;50.428;19.218;2023-09-30T04:05:33;18.3;;;14.1;;
41229;SDS011;26964;50.428;19.218;2023-09-30T04:06:33;24.0;;;14.0;;
41229;SDS011;26964;50.428;19.218;2023-09-30T04:07:33;19.7;;;14.7;;
41229;SDS011;26964;50.428;19.218;2023-09-30T04:08:33;21.2;;;14.3;;
41229;SDS011;26964;50.428;19.218;2023-09-30T04:09:33;19.3;;;14.7;;
41229;SDS011;26964;50.428;19.218;2023-09-30T04:10:33;19.4;;;14.5;;
41229;SDS011;26964;50.428;19.218;2023-09-30T04:11:33;19.1;;;14.5;;
41229;SDS011;26964;50.428;19.218;2023-09-30T04:12:33;21.8;;;14.5;;
41229;SDS011;26964;50.428;19.218;2023-09-30T04:13:33;23.0;;;15.4;;
41229;SDS011;26964;50.428;19.218;2023-09-30T04:14:33;21.2;;;14.7;;
41229;SDS011;26964;50.428;19.218;2023-09-30T04:15:33;21.7;;;14.9;;
41229;SDS011;26964;50.428;19.218;2023-09-30T04:16:33;22.1;;;14.8;;
41229;SDS011;26964;50.428;19.218;2023-09-30T04:17:33;22.5;;;16.0;;
41229;SDS011;26964;50.428;19.218;2023-09-30T04:18:33;22.2;;;15.4;;
41229;SDS011;26964;50.428;19.218;2023-09-30T04:19:33;20.0;;;14.2;;
41229;SDS011;26964;50.428;19.218;2023-09-30T04:20:33;19.4;;;14.5;;
41229;SDS011;26964;50.428;19.218;2023-09-30T04:21:33;21.7;;;15.1;;
41229;SDS011;26964;50.428;19.218;2023-09-30T04:22:33;23.5;;;15.7;;
41229;SDS011;26964;50.428;19.218;2023-09-30T04:23:33;23.9;;;15.3;;
41229;SDS011;26964;50.428;19.218;2023-09-30T04:24:33;20.7;;;14.6;;
41229;SDS011;26964;50.428;19.218;2023-09-30T04:25:33;20.5;;;14.7;;
41229;SDS011;26964;50.428;19.218;2023-09-30T04:26:33;19.0;;;15.0;;
41229;SDS011;26964;50.428;19.218;2023-09-30T04:27:33;21.2;;;15.6;;
41229;SDS011;26964;50.428;19.218;2023-09-30T04:28:33;22.5;;;15.0;;
41229;SDS011;26964;50.428;19.218;2023-09-30T04:29:33;24.8;;;14.5;;
41229;SDS011;26964;50.428;19.218;2023-09-30T04:30:33;20.3;;;15.0;;
41229;SDS011;26964;50.428;19.218;2023-09-30T04:31:33;21.1;;;15.4;;
41229;SDS011;26964;50.428;19.218;2023-09-30T04:32:33;22.5;;;15.6;;
41229;SDS011;26964;50.428;19.218;2023-09-30T04:33:33;22.8;;;14.7;;
41229;SDS011;26964;50.428;19.218;2023-09-30T04:34:33;21.3;;;15.0;;
41229;SDS011;26964;50.428;19.218;2023-09-30T04:35:33;23.8;;;14.7;;
41229;SDS011;26964;50.428;19.218;2023-09-30T04:36:33;20.5;;;15.2;;
41229;SDS011;26964;50.428;19.218;2023-09-30T04:37:33;21.1;;;16.0;;
41229;SDS011;26964;50.428;19.218;2023-09-30T04:38:33;19.9;;;15.1;;
41229;SDS011;26964;50.428;19.218;2023-09-30T04:39:33;24.7;;;15.4;;
41229;SDS011;26964;50.428;19.218;2023-09-30T04:40:33;21.6;;;15.4;;
41229;SDS011;26964;50.428;19.218;2023-09-30T04:41:33;21.6;;;15.5;;
41229;SDS011;26964;50.428;19.218;2023-09-30T04:42:33;24.3;;;16.4;;
41229;SDS011;26964;50.428;19.218;2023-09-30T04:43:33;22.3;;;15.9;;
41229;SDS011;26964;50.428;19.218;2023-09-30T04:44:33;23.5;;;16.7;;
41229;SDS011;26964;50.428;19.218;2023-09-30T04:45:33;20.6;;;15.3;;
41229;SDS011;26964;50.428;19.218;2023-09-30T04:46:33;20.4;;;14.7;;
41229;SDS011;26964;50.428;19.218;2023-09-30T04:47:33;20.7;;;15.3;;
41229;SDS011;26964;50.428;19.218;2023-09-30T04:48:33;23.9;;;15.3;;
41229;SDS011;26964;50.428;19.218;2023-09-30T04:49:33;20.5;;;16.0;;
41229;SDS011;26964;50.428;19.218;2023-09-30T04:50:33;20.8;;;15.4;;
41229;SDS011;26964;50.428;19.218;2023-09-30T04:51:33;20.8;;;15.4;;
41229;SDS011;26964;50.428;19.218;2023-09-30T04:52:33;23.7;;;15.8;;
41229;SDS011;26964;50.428;19.218;2023-09-30T04:53:33;20.5;;;15.3;;
41229;SDS011;26964;50.428;19.218;2023-09-30T04:54:33;20.2;;;15.2;;
41229;SDS011;26964;50.428;19.218;2023-09-30T04:55:33;20.1;;;15.0;;
41229;SDS011;26964;50.428;19.218;2023-09-30T04:56:33;19.1;;;14.3;;
41229;SDS011;26964;50.428;19.218;2023-09-30T04:57:33;20.2;;;16.1;;
41229;SDS011;26964;50.428;19.218;2023-09-30T04:58:33;22.2;;;15.8;;
41229;SDS011;26964;50.428;19.218;2023-09-30T04:59:33;20.0;;;14.9;;
41229;SDS011;26964;50.428;19.218;2023-09-30T05:00:33;20.3;;;14.1;;
41229;SDS011;26964;50.428;19.218;2023-09-30T05:01:33;20.3;;;14.6;;
41229;SDS011;26964;50.428;19.218;2023-09-30T05:02:33;21.3;;;15.1;;
41229;SDS011;26964;50.428;19.218;2023-09-30T05:03:33;22.6;;;15.8;;
41229;SDS011;26964;50.428;19.218;2023-09-30T05:04:33;19.5;;;15.0;;
41229;SDS011;26964;50.428;19.218;2023-09-30T05:05:33;22.0;;;15.3;;
41229;SDS011;26964;50.428;19.218;2023-09-30T05:06:33;19.8;;;15.8;;
41229;SDS011;26964;50.428;19.218;2023-09-30T05:07:33;21.9;;;15.1;;
41229;SDS011;26964;50.428;19.218;2023-09-30T05:08:33;22.2;;;14.8;;
41229;SDS011;26964;50.428;19.218;2023-09-30T05:09:33;22.6;;;14.4;;
41229;SDS011;26964;50.428;19.218;2023-09-30T05:10:33;19.4;;;15.4;;
41229;SDS011;26964;50.428;19.218;2023-09-30T05:11:33;20.5;;;15.5;;
41229;SDS011;26964;50.428;19.218;2023-09-30T05:12:33;20.2;;;16.4;;
41229;SDS011;26964;50.428;19.218;2023-09-30T05:13:33;20.5;;;15.4;;
41229;SDS011;26964;50.428;19.218;2023-09-30T05:14:33;20.2;;;15.7;;
41229;SDS011;26964;50.428;19.218;2023-09-30T05:15:33;23.5;;;15.2;;
41229;SDS011;26964;50.428;19.218;2023-09-30T05:16:33;23.6;;;15.2;;
41229;SDS011;26964;50.428;19.218;2023-09-30T05:17:33;21.3;;;16.6;;
41229;SDS011;26964;50.428;19.218;2023-09-30T05:18:33;19.9;;;14.9;;
41229;SDS011;26964;50.428;19.218;2023-09-30T05:19:33;19.7;;;14.8;;
41229;SDS011;26964;50.428;19.218;2023-09-30T05:20:33;20.8;;;15.0;;
41229;SDS011;26964;50.428;19.218;2023-09-30T05:21:33;20.6;;;15.4;;
41229;SDS011;26964;50.428;19.218;2023-09-30T05:22:33;20.6;;;15.5;;
41229;SDS011;26964;50.428;19.218;2023-09-30T05:23:33;22.4;;;15.7;;
41229;SDS011;26964;50.428;19.218;2023-09-30T05:24:33;22.1;;;16.3;;
41229;SDS011;26964;50.428;19.218;2023-09-30T05:25:33;21.8;;;15.9;;
41229;SDS011;26964;50.428;19.218;2023-09-30T05:26:33;19.9;;;15.3;;
41229;SDS011;26964;50.428;19.218;2023-09-30T05:27:33;20.4;;;15.5;;
41229;SDS011;26964;50.428;19.218;2023-09-30T05:28:33;20.7;;;15.4;;
41229;SDS011;26964;50.428;19.218;2023-09-30T05:29:33;21.2;;;16.3;;
41229;SDS011;26964;50.428;19.218;2023-09-30T05:30:33;22.3;;;16.7;;
41229;SDS011;26964;50.428;19.218;2023-09-30T05:31:33;24.7;;;16.6;;
41229;SDS011;26964;50.428;19.218;2023-09-30T05:32:33;21.8;;;16.6;;
41229;SDS011;26964;50.428;19.218;2023-09-30T05:33:33;22.2;;;16.1;;
41229;SDS011;26964;50.428;19.218;2023-09-30T05:34:33;21.0;;;16.9;;
41229;SDS011;26964;50.428;19.218;2023-09-30T05:35:33;24.3;;;16.0;;
41229;SDS011;26964;50.428;19.218;2023-09-30T05:36:33;20.6;;;16.1;;
41229;SDS011;26964;50.428;19.218;2023-09-30T05:37:33;25.9;;;17.3;;
41229;SDS011;26964;50.428;19.218;2023-09-30T05:38:33;24.5;;;17.2;;
41229;SDS011;26964;50.428;19.218;2023-09-30T05:39:33;21.6;;;17.3;;
41229;SDS011;26964;50.428;19.218;2023-09-30T05:40:33;23.4;;;17.3;;
41229;SDS011;26964;50.428;19.218;2023-09-30T05:41:33;20.7;;;16.4;;
41229;SDS011;26964;50.428;19.218;2023-09-30T05:42:33;24.5;;;17.7;;
41229;SDS011;26964;50.428;19.218;2023-09-30T05:43:33;21.6;;;16.5;;
41229;SDS011;26964;50.428;19.218;2023-09-30T05:44:33;22.0;;;17.6;;
41229;SDS011;26964;50.428;19.218;2023-09-30T05:45:33;22.1;;;16.8;;
41229;SDS011;26964;50.428;19.218;2023-09-30T05:46:33;23.7;;;16.0;;
41229;SDS011;26964;50.428;19.218;2023-09-30T05:47:33;21.4;;;17.4;;
41229;SDS011;26964;50.428;19.218;2023-09-30T05:48:33;24.0;;;16.9;;
41229;SDS011;26964;50.428;19.218;2023-09-30T05:49:33;23.7;;;17.5;;
41229;SDS011;26964;50.428;19.218;2023-09-30T05:50:33;22.5;;;17.7;;
41229;SDS011;26964;50.428;19.218;2023-09-30T05:51:33;21.0;;;16.7;;
41229;SDS011;26964;50.428;19.218;2023-09-30T05:52:33;22.3;;;16.2;;
41229;SDS011;26964;50.428;19.218;2023-09-30T05:53:33;23.5;;;17.4;;
41229;SDS011;26964;50.428;19.218;2023-09-30T05:54:33;22.4;;;16.8;;
41229;SDS011;26964;50.428;19.218;2023-09-30T05:55:33;23.1;;;17.7;;
41229;SDS011;26964;50.428;19.218;2023-09-30T05:56:33;22.5;;;16.8;;